Flight Track Log - Related Links

Times and Time Zones

All times are in EDT time to prevent confusion due to time zone crossing. See the SKW6306 flight status page for this flight to view local times or setup timezone preferences in your user account.

Time Position Orientation Groundspeed Altitude Reporting Facility
EDT Latitude Longitude Course Direction KTS MPH feet Rate Location/Type
Thu 09:37:00 PM 39.8000 -104.6500 191° South 195 224 6,500  Level Denver TRACON
Thu 09:38:06 PM 39.7333 -104.6667 191° South 235 270 8,200 1,200 Climbing Denver TRACON
Thu 09:39:00 PM 39.7000 -104.7333 237° Southwest 279 321 8,900 1,526 Climbing Denver TRACON
Thu 09:40:00 PM 39.7000 -104.8333 270° West 269 310 11,100 2,000 Climbing Denver TRACON
Thu 09:41:06 PM 39.7000 -104.9333 270° West 261 300 13,100 1,905 Climbing Denver TRACON
Thu 09:42:06 PM 39.6833 -105.0167 255° West 255 293 15,100 1,228 Climbing Denver TRACON
Thu 09:43:13 PM 39.6719 -105.1383 263° West 295 339 15,700 791 Climbing Denver Center
Thu 09:44:15 PM 39.6439 -105.2497 252° West 322 371 16,800 1,065 Climbing Denver Center
Thu 09:45:17 PM 39.6158 -105.3628 252° West 329 379 17,900 1,220 Climbing Denver Center
Thu 09:46:18 PM 39.5850 -105.4853 252° West 334 384 19,300 1,171 Climbing Denver Center
Thu 09:47:20 PM 39.5561 -105.5983 252° West 334 384 20,300 838 Climbing Denver Center
Thu 09:48:34 PM 39.5167 -105.7439 251° West 350 403 21,200 750 Climbing Denver Center
Thu 09:49:36 PM 39.4839 -105.8594 250° West 351 404 22,000 774 Climbing Denver Center
Thu 09:50:38 PM 39.4517 -105.9800 251° West 354 407 22,800 634 Climbing Denver Center
Thu 09:51:39 PM 39.4253 -106.0767 251° West 357 411 23,300 634 Climbing Denver Center
Thu 09:52:41 PM 39.3803 -106.2322 250° West 365 420 24,100 683 Climbing Denver Center
Thu 09:53:42 PM 39.3458 -106.3536 250° West 374 430 24,700 585 Climbing Denver Center
Thu 09:54:44 PM 39.3053 -106.4978 250° West 382 440 25,300 581 Climbing Denver Center
Thu 09:55:46 PM 39.2628 -106.6467 250° West 394 453 25,900 532 Climbing Denver Center
Thu 09:56:48 PM 39.2158 -106.7711 244° Southwest 401 461 26,400 439 Climbing Denver Center
Thu 09:57:49 PM 39.1642 -106.8683 236° Southwest 408 470 26,800 488 Climbing Denver Center
Thu 09:58:51 PM 39.0831 -107.0264 237° Southwest 414 476 27,400 532 Climbing Denver Center
Thu 09:59:53 PM 39.0214 -107.1442 236° Southwest 414 476 27,900 532 Climbing Denver Center
Thu 10:00:55 PM 38.9497 -107.2825 236° Southwest 416 479 28,500 532 Climbing Denver Center
Thu 10:01:57 PM 38.8883 -107.4019 237° Southwest 417 480 29,000 290 Climbing Denver Center
Thu 10:02:59 PM 38.8164 -107.5394 236° Southwest 414 476 29,100 244 Climbing Denver Center
Thu 10:04:00 PM 38.7506 -107.6639 236° Southwest 432 497 29,500 341 Climbing Denver Center
Thu 10:05:02 PM 38.6867 -107.7856 236° Southwest 431 496 29,800 435 Climbing Denver Center
Thu 10:06:04 PM 38.6122 -107.9267 236° Southwest 427 491 30,400 484 Climbing Denver Center
Thu 10:07:06 PM 38.5472 -108.0469 235° Southwest 428 493 30,800 387 Climbing Denver Center
Thu 10:08:08 PM 38.4733 -108.1867 236° Southwest 426 490 31,200 341 Climbing Denver Center
Thu 10:09:09 PM 38.4089 -108.3072 236° Southwest 427 491 31,500 341 Climbing Denver Center
Thu 10:10:11 PM 38.3333 -108.4481 236° Southwest 429 494 31,900 242 Climbing Denver Center
Thu 10:11:13 PM 38.2678 -108.5689 235° Southwest 431 496 32,000 48 Climbing Denver Center
Thu 10:12:15 PM 38.2014 -108.6911 235° Southwest 436 502 32,000  Level Denver Center
Thu 10:13:16 PM 38.1222 -108.8361 235° Southwest 442 509 32,000  Level Denver Center
Thu 10:14:18 PM 38.0544 -108.9628 236° Southwest 448 516 32,000  Level Denver Center
Thu 10:15:32 PM 37.9647 -109.1200 234° Southwest 438 504 32,000  Level Denver Center
Thu 10:16:34 PM 37.8981 -109.2428 235° Southwest 441 507 32,000  Level Denver Center
Thu 10:17:36 PM 37.8206 -109.3828 235° Southwest 435 501 32,000  Level Denver Center
Thu 10:18:38 PM 37.7550 -109.5003 235° Southwest 430 495 32,000  Level Denver Center
Thu 10:19:39 PM 37.6786 -109.6389 235° Southwest 430 495 32,000  Level Denver Center
Thu 10:20:41 PM 37.6119 -109.7544 234° Southwest 430 495 32,000  Level Denver Center
Thu 10:21:43 PM 37.5361 -109.8914 235° Southwest 429 494 32,000  Level Denver Center
Thu 10:22:45 PM 37.4689 -110.0083 234° Southwest 430 495 32,000  Level Denver Center
Thu 10:23:47 PM 37.3911 -110.1453 234° Southwest 432 497 32,000  Level Denver Center
Thu 10:24:48 PM 37.3272 -110.2567 234° Southwest 428 493 32,000  Level Denver Center
Thu 10:25:50 PM 37.2586 -110.3781 235° Southwest 427 491 32,000  Level Denver Center
Thu 10:26:52 PM 37.1883 -110.4986 234° Southwest 427 491 32,000  Level Denver Center
Thu 10:27:54 PM 37.1039 -110.6436 234° Southwest 428 493 32,000  Level Denver Center
Thu 10:28:55 PM 37.0347 -110.7661 235° Southwest 430 495 32,000  Level Denver Center
Thu 10:29:57 PM 36.9642 -110.8867 234° Southwest 429 494 32,000  Level Denver Center
Thu 10:30:59 PM 36.8933 -111.0078 234° Southwest 431 496 32,000  Level Denver Center
Thu 10:32:01 PM 36.8231 -111.1289 234° Southwest 431 496 32,000  Level Denver Center
Thu 10:33:02 PM 36.7539 -111.2486 234° Southwest 428 493 32,000  Level Denver Center
Thu 10:34:04 PM 36.6825 -111.3686 233° Southwest 428 493 32,000  Level Denver Center
Thu 10:35:06 PM 36.6092 -111.4908 233° Southwest 434 499 32,000  Level Denver Center
Thu 10:36:07 PM 36.5244 -111.6344 234° Southwest 431 496 32,000  Level Denver Center
Thu 10:37:09 PM 36.4536 -111.7547 234° Southwest 430 495 32,000  Level Denver Center
Thu 10:38:11 PM 36.3803 -111.8756 233° Southwest 434 499 32,000  Level Denver Center
Thu 10:39:12 PM 36.3083 -111.9958 233° Southwest 434 499 32,000  Level Denver Center
Thu 10:40:14 PM 36.2369 -112.1156 234° Southwest 433 498 32,000  Level Denver Center
Thu 10:41:16 PM 36.1644 -112.2344 233° Southwest 432 497 32,000  Level Denver Center
Thu 10:42:37 PM 36.0631 -112.4008 233° Southwest 428 493 32,000  Level Los Angeles Center
Thu 10:43:39 PM 35.9900 -112.5200 233° Southwest 431 496 32,000  Level Los Angeles Center
Thu 10:44:53 PM 35.9008 -112.6683 233° Southwest 436 502 32,000 -132 Level Los Angeles Center
Thu 10:45:55 PM 35.8283 -112.7858 233° Southwest 435 501 31,700 -677 Descending Los Angeles Center
Thu 10:46:57 PM 35.7542 -112.9064 233° Southwest 444 511 30,600 -829 Descending Los Angeles Center
Thu 10:47:58 PM 35.6764 -113.0325 233° Southwest 444 511 30,000 -293 Descending Los Angeles Center
Thu 10:49:00 PM 35.5856 -113.1786 233° Southwest 448 516 30,000  Level Los Angeles Center
Thu 10:50:02 PM 35.5194 -113.2864 233° Southwest 444 511 30,000  Level Los Angeles Center
Thu 10:51:04 PM 35.4453 -113.4042 232° Southwest 443 510 30,000  Level Los Angeles Center
Thu 10:52:06 PM 35.3575 -113.5442 232° Southwest 439 505 30,000  Level Los Angeles Center
Thu 10:53:07 PM 35.2831 -113.6622 232° Southwest 441 507 30,000  Level Los Angeles Center
Thu 10:54:09 PM 35.2086 -113.7789 232° Southwest 439 505 30,000 -48 Level Los Angeles Center
Thu 10:55:11 PM 35.1358 -113.8958 233° Southwest 437 503 29,900 -484 Descending Los Angeles Center
Thu 10:56:13 PM 35.0611 -114.0108 232° Southwest 440 506 29,000 -927 Descending Los Angeles Center
Thu 10:57:14 PM 34.9739 -114.1469 232° Southwest 427 491 28,000 -488 Descending Los Angeles Center
Thu 10:58:16 PM 34.9014 -114.2611 232° Southwest 425 489 28,000  Level Los Angeles Center
Thu 10:59:18 PM 34.8261 -114.3775 232° Southwest 432 497 28,000  Level Los Angeles Center
Thu 11:00:20 PM 34.7494 -114.4975 232° Southwest 446 513 28,000  Level Los Angeles Center
Thu 11:01:21 PM 34.6719 -114.6142 231° Southwest 445 512 28,000  Level Los Angeles Center
Thu 11:02:23 PM 34.5911 -114.7358 231° Southwest 444 511 28,000 -242 Level Los Angeles Center
Thu 11:03:25 PM 34.5119 -114.8542 231° Southwest 450 518 27,500 -726 Descending Los Angeles Center
Thu 11:04:27 PM 34.4347 -114.9703 231° Southwest 444 511 26,500 -976 Descending Los Angeles Center
Thu 11:05:28 PM 34.3589 -115.0822 231° Southwest 434 499 25,500 -1,073 Descending Los Angeles Center
Thu 11:06:30 PM 34.2825 -115.2242 237° Southwest 421 484 24,300 -1,065 Descending Los Angeles Center
Thu 11:07:32 PM 34.2186 -115.3428 237° Southwest 422 486 23,300 -889 Descending Los Angeles Center
Thu 11:08:45 PM 34.1572 -115.4633 238° Southwest 423 487 22,300 -1,853 Descending Los Angeles Center
Thu 11:09:48 PM 34.0825 -115.6039 237° Southwest 417 480 19,100 -3,048 Descending Los Angeles Center
Thu 11:10:49 PM 34.0203 -115.7183 237° Southwest 410 472 16,000 -2,634 Descending Los Angeles Center
Thu 11:11:51 PM 33.9631 -115.8250 237° Southwest 388 447 13,700 -1,935 Descending Los Angeles Center
Thu 11:12:53 PM 33.9128 -115.9189 237° Southwest 351 404 12,000 -1,902 Descending Los Angeles Center
Thu 11:13:54 PM 33.9019 -116.0442 264° West 325 374 9,800 -1,902 Descending Los Angeles Center
Thu 11:14:56 PM 33.9008 -116.1442 269° West 314 361 8,100 -1,355 Descending Los Angeles Center
Thu 11:15:58 PM 33.9019 -116.2397 271° West 303 349 7,000 -919 Descending Los Angeles Center
Thu 11:17:00 PM 33.9011 -116.3294 269° West 290 334 6,200 -488 Descending Los Angeles Center
Thu 11:18:01 PM 33.9003 -116.3947 269° West 288 331 6,000 -1,403 Descending Los Angeles Center
Thu 11:19:34 PM 33.7833 -116.4000 182° South 223 257 2,600 -1,647 Descending Southern California TRACON
Thu 11:20:34 PM 33.7667 -116.4500 248° West 191 220 1,800 -857 Descending Southern California TRACON
Thu 11:21:40 PM 33.8167 -116.4833 331° Northwest 153 176 800 -909 Descending Southern California TRACON
Thu 11:23:00 PM 33.8167 -116.5000 256° West  Level FlightAware Approximate
Thu 11:30:00 PM 33.8297 -116.5067 256° West  Level Estimated

Login

Don't have an account? Register now (free) for customized features, flight alerts, and more!